Latest Weather Observations for Adelaide Airport

IDS60901

Issued at 7:35 pm CST Tuesday 30 September 2014 (issued every 10 minutes, with the page automatically refreshed every 10 minutes)

About weather observations | Map of Adelaide area stations | Latest observations for Adelaide area | Other Formats
Station Details ID: 023034 Name: ADELAIDE AIRPORT Lat: -34.95 Lon: 138.52 Height: 2.0 m
Data from the previous 72 hours. | See also: Recent months at Adelaide Airport
Date/Time
CST
Tmp

°C
App
Tmp
°C
Dew
Point
°C
Rel
Hum
%
Delta-T

°C
Wind Press
QNH
hPa
Press
MSL
hPa
Rain
since
9 am
mm
Dir
 
Spd
km/h
Gust
km/h
Spd
kts
Gust
kts
30/07:30pm 14.8 6.9 7.7 62 3.5 WSW 39 48 21 26 1020.3 - 0.0
30/07:00pm 14.8 6.8 7.3 61 3.7 WSW 39 52 21 28 1019.7 - 0.0
30/06:30pm 14.9 7.4 7.9 63 3.5 WSW 37 48 20 26 1019.2 - 0.0
30/06:00pm 15.4 7.9 8.0 61 3.7 WSW 37 50 20 27 1018.8 1018.8 0.0
30/05:30pm 15.3 8.2 7.9 61 3.7 WSW 35 43 19 23 1018.4 - 0.0
30/05:00pm 16.2 7.4 7.1 55 4.5 WSW 43 54 23 29 1018.0 - 0.0
30/04:30pm 16.6 8.1 7.1 53 4.7 WSW 41 50 22 27 1017.5 - 0.0
30/04:00pm 17.1 9.3 8.3 56 4.5 WSW 39 50 21 27 1017.2 - 0.0
30/03:30pm 17.1 8.9 8.3 56 4.5 WSW 41 50 22 27 1017.0 - 0.0
30/03:00pm 17.0 10.1 10.2 64 3.6 WSW 37 44 20 24 1016.7 1016.7 0.0
30/02:30pm 15.6 10.1 11.7 77 2.1 WSW 32 46 17 25 1016.7 - 0.0
30/02:00pm 13.9 5.0 12.0 88 1.0 WSW 50 61 27 33 1016.7 - 0.0
30/01:49pm 14.2 6.3 11.4 83 1.5 WSW 44 61 24 33 1016.6 - 0.0
30/01:46pm 14.7 7.3 11.1 79 1.9 WSW 41 61 22 33 1016.5 - 0.0
30/01:30pm 16.4 10.5 11.0 70 2.9 WSW 33 43 18 23 1016.1 - 0.0
30/01:23pm 16.2 9.9 11.0 71 2.8 WSW 35 54 19 29 1015.9 - 0.0
30/01:15pm 16.4 8.6 11.2 71 2.8 WSW 43 54 23 29 1015.9 - 0.0
30/01:13pm 17.4 12.2 11.5 68 3.2 W 30 48 16 26 1015.9 - 0.0
30/01:00pm 19.1 14.6 11.4 61 4.2 W 26 35 14 19 1015.6 - 0.0
30/12:30pm 19.1 12.9 11.4 61 4.2 W 35 44 19 24 1015.5 - 0.0
30/12:00pm 18.2 12.6 11.6 65 3.6 WNW 32 39 17 21 1015.2 1015.2 0.0
30/11:30am 18.5 13.0 11.8 65 3.7 WNW 32 41 17 22 1015.1 - 0.0
30/11:00am 17.8 12.2 11.6 67 3.4 WNW 32 43 17 23 1015.0 - 0.0
30/10:30am 18.9 13.0 11.0 60 4.3 WNW 33 43 18 23 1015.0 - 0.0
30/10:00am 18.9 13.5 10.8 59 4.4 WNW 30 39 16 21 1014.8 - 0.0
30/09:30am 18.7 13.7 10.9 60 4.2 WNW 28 35 15 19 1014.7 - 0.0
30/09:00am 18.4 12.9 10.4 59 4.3 NW 30 37 16 20 1014.3 1014.3 0.0
30/08:30am 17.9 11.8 9.7 58 4.3 NW 32 39 17 21 1014.2 - 0.0
30/08:00am 17.8 14.0 9.8 59 4.2 NW 20 26 11 14 1013.7 - 0.0
30/07:30am 15.9 12.8 10.2 69 3.0 N 17 22 9 12 1013.3 - 0.0
30/07:00am 13.2 9.6 9.9 80 1.7 NNE 19 26 10 14 1012.7 - 0.0
30/06:30am 11.1 7.9 8.5 84 1.3 NNE 15 17 8 9 1012.9 - 0.0
30/06:00am 10.0 6.6 7.7 86 1.1 N 15 20 8 11 1012.5 1012.5 0.0
30/05:30am 10.9 7.6 8.2 83 1.3 NNE 15 19 8 10 1012.0 - 0.0
30/05:00am 11.2 7.7 8.6 84 1.3 NNE 17 19 9 10 1011.8 - 0.0
30/04:30am 11.3 8.6 8.9 85 1.2 NE 13 19 7 10 1011.6 - 0.0
30/04:00am 10.9 7.9 9.3 90 0.8 NNE 15 17 8 9 1011.5 - 0.0
30/03:30am 11.1 8.2 9.5 90 0.8 NNE 15 19 8 10 1011.4 - 0.0
30/03:00am 11.4 8.2 9.8 90 0.8 NNE 17 22 9 12 1011.8 1011.8 0.0
30/02:30am 11.3 8.4 9.7 90 0.8 NE 15 17 8 9 1011.9 - 0.0
30/02:00am 10.4 7.3 9.0 91 0.7 NE 15 19 8 10 1012.2 - 0.0
30/01:30am 11.9 9.5 9.9 87 1.0 NE 13 15 7 8 1012.9 - 0.0
30/01:00am 11.7 10.1 10.1 90 0.8 ENE 9 11 5 6 1013.1 - 0.0
30/12:30am 11.4 9.3 9.8 90 0.8 NE 11 13 6 7 1013.6 - 0.0
30/12:00am 12.0 10.0 10.0 87 1.0 NE 11 11 6 6 1014.1 1014.1 0.0
 
Date/Time
CST
Tmp

°C
App
Tmp
°C
Dew
Point
°C
Rel
Hum
%
Delta-T

°C
Wind Press
QNH
hPa
Press
MSL
hPa
Rain
since
9 am
mm
Dir
 
Spd
km/h
Gust
km/h
Spd
kts
Gust
kts
29/11:30pm 11.8 10.5 9.8 87 1.0 NE 7 7 4 4 1014.4 - 0.0
29/11:00pm 11.7 10.0 9.7 87 1.0 NE 9 9 5 5 1014.7 - 0.0
29/10:30pm 12.2 12.4 10.5 89 0.9 CALM 0 0 0 0 1014.9 - 0.0
29/10:00pm 14.1 13.8 11.3 83 1.5 WSW 4 7 2 4 1015.1 - 0.0
29/09:30pm 14.3 13.0 11.1 81 1.7 SSW 9 9 5 5 1015.1 - 0.0
29/09:00pm 14.7 13.1 11.5 81 1.7 SW 11 15 6 8 1015.0 1015.0 0.0
29/08:30pm 15.0 12.9 11.0 77 2.1 SW 13 17 7 9 1014.8 - 0.0
29/08:00pm 15.6 12.9 11.7 77 2.1 W 17 22 9 12 1014.6 - 0.0
29/07:30pm 16.7 13.9 10.1 65 3.5 W 15 22 8 12 1014.1 - 0.0
29/07:00pm 16.8 14.5 9.1 60 4.0 W 11 15 6 8 1013.7 - 0.0
29/06:30pm 17.3 15.7 8.8 57 4.4 W 7 7 4 4 1013.3 - 0.0
29/06:00pm 18.4 16.9 8.5 52 5.1 W 6 9 3 5 1013.1 1013.1 0.0
29/05:30pm 19.1 16.9 7.8 48 5.8 W 9 13 5 7 1013.2 - 0.0
29/05:00pm 19.3 16.9 8.5 49 5.6 W 11 15 6 8 1013.1 - 0.0
29/04:30pm 19.2 16.5 9.1 52 5.3 W 13 17 7 9 1013.2 - 0.0
29/04:00pm 19.2 16.2 9.1 52 5.3 W 15 19 8 10 1013.2 - 0.0
29/03:30pm 19.5 16.2 9.5 52 5.3 WNW 17 24 9 13 1013.3 - 0.0
29/03:00pm 19.6 15.6 8.9 50 5.6 WNW 20 32 11 17 1013.4 1013.4 0.0
29/02:30pm 19.6 15.1 8.7 49 5.7 NW 22 32 12 17 1013.5 - 0.0
29/02:00pm 19.8 14.8 8.2 47 6.0 NNW 24 32 13 17 1013.7 - 0.0
29/01:30pm 19.7 14.3 8.1 47 6.0 NNW 26 32 14 17 1014.1 - 0.0
29/01:00pm 20.1 14.9 8.9 48 5.9 NNW 26 33 14 18 1014.4 - 0.0
29/12:30pm 19.4 14.2 8.7 50 5.6 NNW 26 33 14 18 1014.8 - 0.0
29/12:00pm 18.7 14.0 9.4 54 4.9 NW 24 32 13 17 1015.1 1015.1 0.0
29/11:30am 18.1 14.5 10.4 60 4.1 NNW 20 26 11 14 1015.5 - 0.0
29/11:00am 18.3 14.7 10.5 60 4.2 NNW 20 26 11 14 1015.8 - 0.0
29/10:30am 17.3 12.4 11.2 67 3.3 NNW 28 35 15 19 1016.1 - 0.0
29/10:00am 17.6 13.2 11.7 68 3.2 NNW 26 32 14 17 1016.3 - 0.0
29/09:30am 16.8 13.2 11.8 72 2.7 NNW 22 30 12 16 1016.5 - 0.0
29/09:00am 16.3 13.2 12.3 77 2.2 NNW 20 26 11 14 1016.3 1016.3 0.0
29/08:30am 15.8 13.9 11.9 77 2.1 N 13 19 7 10 1016.0 - 0.0
29/08:00am 14.2 11.4 11.2 82 1.6 N 17 22 9 12 1015.8 - 0.0
29/07:30am 13.2 10.2 10.7 85 1.3 N 17 22 9 12 1015.5 - 0.0
29/07:00am 12.5 9.9 10.6 88 1.0 N 15 19 8 10 1015.4 - 0.0
29/06:30am 11.1 8.7 9.9 92 0.6 NNE 13 15 7 8 1015.1 - 0.0
29/06:00am 13.7 11.7 11.6 87 1.1 NNE 13 17 7 9 1015.0 1015.0 0.0
29/05:30am 14.2 12.7 11.8 85 1.3 WNW 11 15 6 8 1014.7 - 0.0
29/05:00am 14.5 12.2 11.7 83 1.5 W 15 19 8 10 1014.4 - 0.0
29/04:30am 14.7 11.9 11.3 80 1.8 W 17 22 9 12 1014.0 - 0.0
29/04:00am 14.9 11.5 11.1 78 2.0 WSW 20 28 11 15 1013.8 - 0.0
29/03:30am 14.9 10.8 11.3 79 1.9 WSW 24 32 13 17 1013.6 - 0.0
29/03:00am 14.8 10.6 11.2 79 1.9 W 24 32 13 17 1013.8 1013.8 0.0
29/02:30am 14.6 11.6 12.0 84 1.4 W 19 24 10 13 1013.9 - 0.0
29/02:00am 14.8 11.6 11.8 82 1.6 W 20 28 11 15 1013.8 - 0.0
29/01:30am 14.9 11.2 11.5 80 1.8 W 22 30 12 16 1014.0 - 0.0
29/01:00am 14.8 11.1 11.4 80 1.8 W 22 30 12 16 1014.2 - 0.0
29/12:30am 15.2 10.9 10.9 75 2.3 W 24 32 13 17 1014.7 - 0.0
29/12:00am 15.3 11.0 10.8 74 2.4 W 24 30 13 16 1014.8 1014.8 0.0
 
Date/Time
CST
Tmp

°C
App
Tmp
°C
Dew
Point
°C
Rel
Hum
%
Delta-T

°C
Wind Press
QNH
hPa
Press
MSL
hPa
Rain
since
9 am
mm
Dir
 
Spd
km/h
Gust
km/h
Spd
kts
Gust
kts
28/11:30pm 15.2 11.6 10.7 74 2.4 W 20 28 11 15 1014.9 - 0.0
28/11:00pm 15.2 12.2 10.7 74 2.4 W 17 20 9 11 1015.2 - 0.0
28/10:30pm 15.2 13.0 10.7 74 2.4 W 13 20 7 11 1015.1 - 0.0
28/10:00pm 15.2 12.1 10.4 73 2.5 W 17 22 9 12 1015.0 - 0.0
28/09:30pm 15.2 12.5 10.4 73 2.5 W 15 19 8 10 1014.9 - 0.0
28/09:00pm 15.4 12.2 10.0 70 2.8 W 17 24 9 13 1014.9 1014.9 0.0
28/08:30pm 14.8 13.2 11.6 81 1.7 WSW 11 17 6 9 1014.6 - 0.0
28/08:00pm 15.2 12.1 12.3 83 1.6 WSW 20 28 11 15 1014.2 - 0.0
28/07:30pm 15.5 11.5 11.8 78 2.0 SW 24 32 13 17 1013.3 - 0.0
28/07:00pm 15.6 12.4 11.9 78 2.0 SW 20 28 11 15 1012.5 - 0.0
28/06:30pm 15.8 12.7 11.7 76 2.2 SSW 19 28 10 15 1011.6 - 0.0
28/06:00pm 16.3 12.2 11.5 73 2.6 SSW 24 32 13 17 1011.1 1011.1 0.0
28/05:30pm 16.9 13.7 11.2 69 3.1 SSW 19 30 10 16 1010.7 - 0.0
28/05:00pm 17.4 13.0 11.7 69 3.1 SSW 26 37 14 20 1010.0 - 0.0
28/04:31pm 18.0 12.7 11.4 65 3.6 SSW 30 48 16 26 1009.4 - 0.0
28/04:27pm 18.2 13.3 11.2 63 3.8 SSW 28 48 15 26 1009.4 - 0.0
28/04:00pm 18.5 13.2 11.2 62 4.0 S 30 39 16 21 1008.8 - 0.0
28/03:30pm 19.4 13.2 11.4 60 4.4 SSW 35 52 19 28 1008.3 - 0.0
28/03:00pm 20.1 13.7 10.8 55 5.1 SW 35 50 19 27 1007.8 1007.8 0.0
28/02:50pm 21.4 12.9 10.6 50 5.9 WSW 46 54 25 29 1007.4 - 0.0
28/02:48pm 22.9 16.3 10.1 44 7.0 W 35 54 19 29 1007.3 - 0.0
28/02:30pm 25.7 18.7 6.9 30 9.9 NW 33 43 18 23 1006.7 - 0.0
28/02:00pm 25.9 19.2 5.4 27 10.5 NW 30 39 16 21 1006.7 - 0.0
28/01:30pm 25.9 18.1 6.6 29 10.1 NW 37 44 20 24 1007.1 - 0.0
28/01:00pm 26.7 18.2 5.0 25 11.1 NNW 39 52 21 28 1007.1 - 0.0
28/12:30pm 27.0 17.6 4.6 23 11.4 NNW 43 59 23 32 1007.3 - 0.0
28/12:00pm 26.5 17.0 4.9 25 11.0 NNW 44 63 24 34 1007.5 1007.5 0.0
28/11:49am 25.9 17.0 5.1 26 10.6 NNW 41 59 22 32 1007.6 - 0.0
28/11:30am 25.1 15.9 5.5 28 10.0 NNW 43 56 23 30 1007.6 - 0.0
28/11:00am 24.8 15.7 5.9 29 9.7 NNW 43 61 23 33 1007.8 - 0.0
28/10:53am 25.2 16.6 6.3 29 9.8 NNW 41 61 22 33 1007.8 - 0.0
28/10:30am 23.7 14.7 7.2 34 8.6 NNW 44 59 24 32 1008.5 - 0.0
28/10:00am 25.5 13.6 4.4 25 10.6 NNW 56 76 30 41 1008.3 - 0.0
28/09:51am 25.5 14.6 3.7 24 10.8 N 50 76 27 41 1008.3 - 0.0
28/09:30am 25.2 16.5 4.1 25 10.5 N 39 57 21 31 1008.4 - 0.0
28/09:00am 25.2 16.1 1.7 21 11.2 N 39 56 21 30 1008.6 1008.6 0.0
28/08:31am 25.3 16.8 0.8 20 11.5 N 35 54 19 29 1008.7 - 0.0
28/08:30am 25.6 16.7 1.0 20 11.6 N 37 54 20 29 1008.7 - 0.0
28/08:00am 24.0 16.0 1.4 22 10.6 N 33 44 18 24 1008.1 - 0.0
28/07:30am 22.9 14.5 1.8 25 9.9 NNE 35 46 19 25 1007.2 - 0.0
28/07:00am 21.8 13.9 2.2 27 9.2 NNE 33 46 18 25 1007.3 - 0.0
28/06:39am 21.4 13.7 2.1 28 9.0 NNE 32 50 17 27 1007.5 - 0.0
28/06:30am 21.0 13.3 2.4 29 8.7 NNE 32 46 17 25 1007.5 - 0.0
28/06:00am 19.8 13.0 3.3 33 7.8 NNE 28 33 15 18 1007.7 1007.7 0.0
28/05:30am 20.0 13.2 3.3 33 7.9 NNE 28 35 15 19 1007.6 - 0.0
28/05:00am 20.2 13.2 3.9 34 7.8 NNE 30 37 16 20 1007.9 - 0.0
28/04:30am 20.6 13.2 4.0 33 8.0 NNE 32 46 17 25 1008.0 - 0.0
28/04:00am 20.2 12.7 4.2 35 7.7 NNE 33 44 18 24 1008.0 - 0.0
28/03:30am 21.0 13.6 4.0 32 8.2 NNE 32 43 17 23 1008.9 - 0.0
28/03:00am 21.2 13.8 4.0 32 8.3 NNE 32 41 17 22 1009.2 1009.2 0.0
28/02:30am 21.1 13.7 3.9 32 8.3 N 32 39 17 21 1009.6 - 0.0
28/02:00am 20.8 13.8 4.0 33 8.1 NNE 30 37 16 20 1010.3 - 0.0
28/01:30am 20.9 13.5 3.8 32 8.2 N 32 39 17 21 1010.8 - 0.0
28/01:00am 20.6 14.0 4.3 34 7.9 N 28 35 15 19 1011.1 - 0.0
28/12:30am 21.0 14.4 4.0 32 8.2 N 28 37 15 20 1011.5 - 0.0
28/12:00am 21.3 14.3 4.2 32 8.3 N 30 43 16 23 1011.7 1011.7 0.0
 
Date/Time
CST
Tmp

°C
App
Tmp
°C
Dew
Point
°C
Rel
Hum
%
Delta-T

°C
Wind Press
QNH
hPa
Press
MSL
hPa
Rain
since
9 am
mm
Dir
 
Spd
km/h
Gust
km/h
Spd
kts
Gust
kts
27/11:30pm 21.8 14.4 4.1 31 8.6 N 32 39 17 21 1011.8 - 0.0
27/11:00pm 22.5 15.4 3.7 29 9.1 N 30 37 16 20 1012.2 - 0.0
27/10:30pm 23.0 15.5 3.3 27 9.5 N 32 43 17 23 1012.2 - 0.0
27/10:00pm 23.5 16.7 2.9 26 9.9 N 28 37 15 20 1012.4 - 0.0
27/09:30pm 23.4 16.3 3.4 27 9.7 N 30 37 16 20 1012.4 - 0.0
27/09:00pm 23.5 17.2 3.6 27 9.7 N 26 32 14 17 1012.5 1012.5 0.0
27/08:30pm 23.4 17.6 4.3 29 9.4 N 24 35 13 19 1012.7 - 0.0
27/08:00pm 23.9 18.2 4.9 29 9.5 N 24 30 13 16 1012.7 - 0.0

Latest Capital City Observations: Canberra | Sydney | Melbourne | Brisbane | Adelaide | Perth | Hobart | Darwin

Other Formats:

Comma delimited format used in spreadsheet applications
http://www.bom.gov.au/fwo/IDS60901/IDS60901.94672.axf

JavaScript Object Notation format (JSON) in row-major order
http://www.bom.gov.au/fwo/IDS60901/IDS60901.94672.json